Hixton, Wisconsin
Current Conditions -  °F | °C
As of 2:15 AM on Saturday 25 Oct 2014 (Local Time) from KBCK Reporting Station
Haze Haze  
Wind Chill: 55°   Ceiling: Unl
Heat Index: 55°   Visibility: 2mi
Dew Point: 55°   Wind: 5mph
Humidity: 100%   Direction: 250°WSW
Pressure: 29.88"   Gusts: NA
Location:  44.39°N, 91.01°W
Report Text: KBCK 250715Z AUTO 25004KT 2SM BR CLR 13/13 A2988 RMK AO2 T01300130
Loading
Personal Weather Stations






























Interactive Weather Map
Tropical Storm Tracking
New forecast layout! Learn more

10-Day Weather Forecast

Advertisements
Track Severe Weather on mobile